Decoded Metar for LIMC (MILANO MALPENSA in ITALY) (IATA:MXP) | Meteo·Mobile Aviation Weather
aviador You're here:

LIMC Decoded Metar

MILANO MALPENSA in ITALY
Report Time2019-07-16 12:50:00
UTC Time2019-07-16 13:19:58
Flight Rules vfr VFR
Wind240° at 08 kt
W.Decomp.*RWY 17: 2.9 kt HW 7.5 kt RCW
Visibility9999 m
Phenomena:N/A
Clouds:N/A
Expected CloudBase > 5,600 ft AGL from Temp-Dew spread
CeilingNone
Temp27°C (ISA +13)
Dew Point13°C (42% RH)
Heat Index27.0°C
AAT25.0°C
QNH1014 hPa
Density Alt2,402 ft
Elevation692 ft
Report Wrong Elevation
Raw Report
METAR LIMC 161250Z 24008KT 200V280 CAVOK 27/13 Q1014 NOSIG=

Extra information for LIMC:More info

Metar Taf Metar & Taf Last 4 Metars F.Rules Stats Wind Profile Meteogram Temp Stats Airport Information Weather charts Add Link Nearby VenuesMetar ALERT Operation Metar Decoded Social comments